sensor_id;sensor_type;location;lat;lon;timestamp;P1;durP1;ratioP1;P2;durP2;ratioP2
13327;SDS011;6733;51.044;3.746;2022-07-23T00:00:03;8.90;;;7.10;;
13327;SDS011;6733;51.044;3.746;2022-07-23T00:02:31;7.50;;;6.73;;
13327;SDS011;6733;51.044;3.746;2022-07-23T00:04:57;8.23;;;7.47;;
13327;SDS011;6733;51.044;3.746;2022-07-23T00:07:23;9.30;;;7.43;;
13327;SDS011;6733;51.044;3.746;2022-07-23T00:09:49;11.20;;;7.43;;
13327;SDS011;6733;51.044;3.746;2022-07-23T00:12:15;8.67;;;7.63;;
13327;SDS011;6733;51.044;3.746;2022-07-23T00:14:41;8.17;;;7.37;;
13327;SDS011;6733;51.044;3.746;2022-07-23T00:17:07;8.00;;;7.10;;
13327;SDS011;6733;51.044;3.746;2022-07-23T00:19:33;12.30;;;7.97;;
13327;SDS011;6733;51.044;3.746;2022-07-23T00:21:59;11.23;;;8.37;;
13327;SDS011;6733;51.044;3.746;2022-07-23T00:24:25;8.40;;;7.50;;
13327;SDS011;6733;51.044;3.746;2022-07-23T00:26:51;9.93;;;8.00;;
13327;SDS011;6733;51.044;3.746;2022-07-23T00:29:17;10.03;;;8.33;;
13327;SDS011;6733;51.044;3.746;2022-07-23T00:31:43;12.70;;;7.97;;
13327;SDS011;6733;51.044;3.746;2022-07-23T00:34:09;9.73;;;7.67;;
13327;SDS011;6733;51.044;3.746;2022-07-23T00:36:36;14.40;;;8.73;;
13327;SDS011;6733;51.044;3.746;2022-07-23T00:39:02;9.07;;;8.17;;
13327;SDS011;6733;51.044;3.746;2022-07-23T00:41:28;10.53;;;9.43;;
13327;SDS011;6733;51.044;3.746;2022-07-23T00:43:54;8.80;;;8.00;;
13327;SDS011;6733;51.044;3.746;2022-07-23T00:46:21;9.97;;;8.97;;
13327;SDS011;6733;51.044;3.746;2022-07-23T00:48:48;10.37;;;8.93;;
13327;SDS011;6733;51.044;3.746;2022-07-23T00:51:15;10.07;;;8.97;;
13327;SDS011;6733;51.044;3.746;2022-07-23T00:53:42;8.97;;;8.03;;
13327;SDS011;6733;51.044;3.746;2022-07-23T00:56:09;11.20;;;8.57;;
13327;SDS011;6733;51.044;3.746;2022-07-23T00:58:36;11.10;;;8.67;;
13327;SDS011;6733;51.044;3.746;2022-07-23T01:01:04;9.60;;;8.70;;
13327;SDS011;6733;51.044;3.746;2022-07-23T01:03:30;9.93;;;8.93;;
13327;SDS011;6733;51.044;3.746;2022-07-23T01:05:56;9.77;;;8.77;;
13327;SDS011;6733;51.044;3.746;2022-07-23T01:08:24;10.47;;;8.43;;
13327;SDS011;6733;51.044;3.746;2022-07-23T01:10:50;9.17;;;8.23;;
13327;SDS011;6733;51.044;3.746;2022-07-23T01:13:17;13.47;;;8.23;;
13327;SDS011;6733;51.044;3.746;2022-07-23T01:15:43;9.27;;;8.20;;
13327;SDS011;6733;51.044;3.746;2022-07-23T01:18:09;8.93;;;8.10;;
13327;SDS011;6733;51.044;3.746;2022-07-23T01:20:36;10.63;;;9.37;;
13327;SDS011;6733;51.044;3.746;2022-07-23T01:23:02;12.07;;;8.97;;
13327;SDS011;6733;51.044;3.746;2022-07-23T01:25:28;11.77;;;8.43;;
13327;SDS011;6733;51.044;3.746;2022-07-23T01:27:55;10.30;;;9.20;;
13327;SDS011;6733;51.044;3.746;2022-07-23T01:30:21;10.00;;;9.00;;
13327;SDS011;6733;51.044;3.746;2022-07-23T01:32:47;9.70;;;8.63;;
13327;SDS011;6733;51.044;3.746;2022-07-23T01:35:13;11.90;;;9.83;;
13327;SDS011;6733;51.044;3.746;2022-07-23T01:37:39;13.03;;;9.40;;
13327;SDS011;6733;51.044;3.746;2022-07-23T01:40:05;10.73;;;8.60;;
13327;SDS011;6733;51.044;3.746;2022-07-23T01:42:32;12.03;;;8.93;;
13327;SDS011;6733;51.044;3.746;2022-07-23T01:44:59;10.83;;;9.67;;
13327;SDS011;6733;51.044;3.746;2022-07-23T01:47:25;9.60;;;8.60;;
13327;SDS011;6733;51.044;3.746;2022-07-23T01:49:51;11.37;;;9.07;;
13327;SDS011;6733;51.044;3.746;2022-07-23T01:52:18;10.93;;;9.83;;
13327;SDS011;6733;51.044;3.746;2022-07-23T01:54:44;11.27;;;9.37;;
13327;SDS011;6733;51.044;3.746;2022-07-23T01:57:10;11.43;;;9.87;;
13327;SDS011;6733;51.044;3.746;2022-07-23T01:59:36;11.17;;;9.37;;
13327;SDS011;6733;51.044;3.746;2022-07-23T02:02:04;11.13;;;9.50;;
13327;SDS011;6733;51.044;3.746;2022-07-23T02:04:31;11.37;;;10.17;;
13327;SDS011;6733;51.044;3.746;2022-07-23T02:07:00;12.03;;;9.70;;
13327;SDS011;6733;51.044;3.746;2022-07-23T02:09:27;10.63;;;9.07;;
13327;SDS011;6733;51.044;3.746;2022-07-23T02:11:54;13.97;;;9.50;;
13327;SDS011;6733;51.044;3.746;2022-07-23T02:14:20;10.33;;;9.30;;
13327;SDS011;6733;51.044;3.746;2022-07-23T02:16:46;11.83;;;9.70;;
13327;SDS011;6733;51.044;3.746;2022-07-23T02:19:12;11.33;;;9.40;;
13327;SDS011;6733;51.044;3.746;2022-07-23T02:21:38;12.73;;;10.37;;
13327;SDS011;6733;51.044;3.746;2022-07-23T02:24:04;12.63;;;9.70;;
13327;SDS011;6733;51.044;3.746;2022-07-23T02:26:30;12.83;;;9.73;;
13327;SDS011;6733;51.044;3.746;2022-07-23T02:29:00;12.93;;;10.57;;
13327;SDS011;6733;51.044;3.746;2022-07-23T02:31:28;12.37;;;9.43;;
13327;SDS011;6733;51.044;3.746;2022-07-23T02:34:01;11.77;;;9.63;;
13327;SDS011;6733;51.044;3.746;2022-07-23T02:36:29;15.93;;;11.53;;
13327;SDS011;6733;51.044;3.746;2022-07-23T02:38:56;11.77;;;10.10;;
13327;SDS011;6733;51.044;3.746;2022-07-23T02:41:22;11.10;;;9.50;;
13327;SDS011;6733;51.044;3.746;2022-07-23T02:43:48;11.03;;;9.90;;
13327;SDS011;6733;51.044;3.746;2022-07-23T02:46:14;13.57;;;10.50;;
13327;SDS011;6733;51.044;3.746;2022-07-23T02:48:40;12.60;;;10.17;;
13327;SDS011;6733;51.044;3.746;2022-07-23T02:51:06;11.37;;;10.33;;
13327;SDS011;6733;51.044;3.746;2022-07-23T02:53:32;15.00;;;9.83;;
13327;SDS011;6733;51.044;3.746;2022-07-23T02:55:58;13.87;;;10.37;;
13327;SDS011;6733;51.044;3.746;2022-07-23T02:58:24;12.47;;;9.60;;
13327;SDS011;6733;51.044;3.746;2022-07-23T03:00:52;20.87;;;10.47;;
13327;SDS011;6733;51.044;3.746;2022-07-23T03:03:18;10.87;;;9.77;;
13327;SDS011;6733;51.044;3.746;2022-07-23T03:05:44;12.70;;;10.00;;
13327;SDS011;6733;51.044;3.746;2022-07-23T03:08:11;15.63;;;10.83;;
13327;SDS011;6733;51.044;3.746;2022-07-23T03:10:37;11.13;;;10.03;;
13327;SDS011;6733;51.044;3.746;2022-07-23T03:13:03;11.10;;;9.97;;
13327;SDS011;6733;51.044;3.746;2022-07-23T03:15:29;13.93;;;10.60;;
13327;SDS011;6733;51.044;3.746;2022-07-23T03:17:55;12.13;;;10.40;;
13327;SDS011;6733;51.044;3.746;2022-07-23T03:20:21;12.53;;;11.17;;
13327;SDS011;6733;51.044;3.746;2022-07-23T03:22:47;12.63;;;10.87;;
13327;SDS011;6733;51.044;3.746;2022-07-23T03:25:13;15.07;;;11.07;;
13327;SDS011;6733;51.044;3.746;2022-07-23T03:27:39;14.70;;;10.83;;
13327;SDS011;6733;51.044;3.746;2022-07-23T03:30:05;13.77;;;11.13;;
13327;SDS011;6733;51.044;3.746;2022-07-23T03:32:32;14.07;;;9.73;;
13327;SDS011;6733;51.044;3.746;2022-07-23T03:34:58;12.67;;;10.80;;
13327;SDS011;6733;51.044;3.746;2022-07-23T03:37:24;11.43;;;10.13;;
13327;SDS011;6733;51.044;3.746;2022-07-23T03:39:50;12.47;;;11.13;;
13327;SDS011;6733;51.044;3.746;2022-07-23T03:42:16;12.50;;;9.93;;
13327;SDS011;6733;51.044;3.746;2022-07-23T03:44:42;13.97;;;11.07;;
13327;SDS011;6733;51.044;3.746;2022-07-23T03:47:08;13.50;;;11.27;;
13327;SDS011;6733;51.044;3.746;2022-07-23T03:49:34;15.57;;;10.90;;
13327;SDS011;6733;51.044;3.746;2022-07-23T03:52:00;16.60;;;11.20;;
13327;SDS011;6733;51.044;3.746;2022-07-23T03:54:26;16.60;;;11.10;;
13327;SDS011;6733;51.044;3.746;2022-07-23T03:56:52;14.50;;;12.13;;
13327;SDS011;6733;51.044;3.746;2022-07-23T03:59:18;17.00;;;12.03;;
13327;SDS011;6733;51.044;3.746;2022-07-23T04:01:44;12.70;;;10.93;;
13327;SDS011;6733;51.044;3.746;2022-07-23T04:04:10;16.03;;;11.67;;
13327;SDS011;6733;51.044;3.746;2022-07-23T04:06:36;16.83;;;11.77;;
13327;SDS011;6733;51.044;3.746;2022-07-23T04:09:02;13.47;;;11.27;;
13327;SDS011;6733;51.044;3.746;2022-07-23T04:11:30;16.60;;;11.53;;
13327;SDS011;6733;51.044;3.746;2022-07-23T04:13:56;14.33;;;11.20;;
13327;SDS011;6733;51.044;3.746;2022-07-23T04:16:22;15.93;;;11.63;;
13327;SDS011;6733;51.044;3.746;2022-07-23T04:18:48;15.60;;;11.77;;
13327;SDS011;6733;51.044;3.746;2022-07-23T04:21:14;17.13;;;11.87;;
13327;SDS011;6733;51.044;3.746;2022-07-23T04:23:40;18.33;;;12.77;;
13327;SDS011;6733;51.044;3.746;2022-07-23T04:26:06;14.70;;;12.90;;
13327;SDS011;6733;51.044;3.746;2022-07-23T04:28:32;13.67;;;12.07;;
13327;SDS011;6733;51.044;3.746;2022-07-23T04:30:58;13.57;;;12.17;;
13327;SDS011;6733;51.044;3.746;2022-07-23T04:33:24;15.60;;;12.20;;
13327;SDS011;6733;51.044;3.746;2022-07-23T04:35:50;15.90;;;11.57;;
13327;SDS011;6733;51.044;3.746;2022-07-23T04:38:16;16.70;;;12.20;;
13327;SDS011;6733;51.044;3.746;2022-07-23T04:40:42;14.10;;;11.77;;
13327;SDS011;6733;51.044;3.746;2022-07-23T04:43:08;14.93;;;11.60;;
13327;SDS011;6733;51.044;3.746;2022-07-23T04:45:34;16.73;;;11.97;;
13327;SDS011;6733;51.044;3.746;2022-07-23T04:48:00;13.17;;;11.50;;
13327;SDS011;6733;51.044;3.746;2022-07-23T04:50:26;13.67;;;12.03;;
13327;SDS011;6733;51.044;3.746;2022-07-23T04:52:52;13.47;;;11.33;;
13327;SDS011;6733;51.044;3.746;2022-07-23T04:55:18;15.67;;;11.33;;
13327;SDS011;6733;51.044;3.746;2022-07-23T04:57:44;14.73;;;12.00;;
13327;SDS011;6733;51.044;3.746;2022-07-23T05:00:10;14.77;;;12.23;;
13327;SDS011;6733;51.044;3.746;2022-07-23T05:02:37;15.13;;;12.10;;
13327;SDS011;6733;51.044;3.746;2022-07-23T05:05:03;16.03;;;11.70;;
13327;SDS011;6733;51.044;3.746;2022-07-23T05:07:29;16.60;;;11.83;;
13327;SDS011;6733;51.044;3.746;2022-07-23T05:09:55;12.17;;;10.50;;
13327;SDS011;6733;51.044;3.746;2022-07-23T05:12:21;14.53;;;11.90;;
13327;SDS011;6733;51.044;3.746;2022-07-23T05:14:47;15.27;;;11.50;;
13327;SDS011;6733;51.044;3.746;2022-07-23T05:17:14;13.13;;;11.57;;
13327;SDS011;6733;51.044;3.746;2022-07-23T05:19:41;13.40;;;11.37;;
13327;SDS011;6733;51.044;3.746;2022-07-23T05:22:07;12.10;;;10.83;;
13327;SDS011;6733;51.044;3.746;2022-07-23T05:24:33;13.40;;;10.70;;
13327;SDS011;6733;51.044;3.746;2022-07-23T05:26:59;13.73;;;10.87;;
13327;SDS011;6733;51.044;3.746;2022-07-23T05:29:25;16.57;;;11.03;;
13327;SDS011;6733;51.044;3.746;2022-07-23T05:31:51;13.63;;;11.13;;
13327;SDS011;6733;51.044;3.746;2022-07-23T05:34:17;13.43;;;10.73;;
13327;SDS011;6733;51.044;3.746;2022-07-23T05:36:43;12.27;;;10.87;;
13327;SDS011;6733;51.044;3.746;2022-07-23T05:39:09;13.77;;;10.40;;
13327;SDS011;6733;51.044;3.746;2022-07-23T05:41:35;15.57;;;10.40;;
13327;SDS011;6733;51.044;3.746;2022-07-23T05:44:01;12.97;;;10.40;;
13327;SDS011;6733;51.044;3.746;2022-07-23T05:46:27;12.93;;;11.33;;
13327;SDS011;6733;51.044;3.746;2022-07-23T05:48:53;12.23;;;10.50;;
13327;SDS011;6733;51.044;3.746;2022-07-23T05:51:22;14.27;;;11.53;;
13327;SDS011;6733;51.044;3.746;2022-07-23T05:53:49;14.20;;;10.50;;
13327;SDS011;6733;51.044;3.746;2022-07-23T05:56:15;12.07;;;10.87;;
13327;SDS011;6733;51.044;3.746;2022-07-23T05:58:42;12.97;;;10.93;;
13327;SDS011;6733;51.044;3.746;2022-07-23T06:01:09;13.07;;;10.30;;
13327;SDS011;6733;51.044;3.746;2022-07-23T06:03:35;13.47;;;11.13;;
13327;SDS011;6733;51.044;3.746;2022-07-23T06:06:01;11.20;;;10.00;;
13327;SDS011;6733;51.044;3.746;2022-07-23T06:08:27;12.33;;;10.53;;
13327;SDS011;6733;51.044;3.746;2022-07-23T06:10:53;13.80;;;11.03;;
13327;SDS011;6733;51.044;3.746;2022-07-23T06:13:19;14.83;;;10.93;;
13327;SDS011;6733;51.044;3.746;2022-07-23T06:15:45;13.63;;;11.03;;
13327;SDS011;6733;51.044;3.746;2022-07-23T06:18:12;13.37;;;10.50;;
13327;SDS011;6733;51.044;3.746;2022-07-23T06:20:38;11.83;;;10.03;;
13327;SDS011;6733;51.044;3.746;2022-07-23T06:23:05;12.60;;;10.20;;
13327;SDS011;6733;51.044;3.746;2022-07-23T06:25:31;10.53;;;9.43;;
13327;SDS011;6733;51.044;3.746;2022-07-23T06:27:56;10.70;;;9.60;;
13327;SDS011;6733;51.044;3.746;2022-07-23T06:30:22;12.33;;;10.33;;
13327;SDS011;6733;51.044;3.746;2022-07-23T06:32:48;10.90;;;9.83;;
13327;SDS011;6733;51.044;3.746;2022-07-23T06:35:15;10.73;;;9.60;;
13327;SDS011;6733;51.044;3.746;2022-07-23T06:37:41;11.60;;;9.93;;
13327;SDS011;6733;51.044;3.746;2022-07-23T06:40:08;11.57;;;10.23;;
13327;SDS011;6733;51.044;3.746;2022-07-23T06:42:34;11.40;;;9.53;;
13327;SDS011;6733;51.044;3.746;2022-07-23T06:45:05;11.20;;;10.17;;
13327;SDS011;6733;51.044;3.746;2022-07-23T06:47:32;12.13;;;9.67;;
13327;SDS011;6733;51.044;3.746;2022-07-23T06:49:58;11.10;;;9.50;;
13327;SDS011;6733;51.044;3.746;2022-07-23T06:52:24;10.93;;;9.63;;
13327;SDS011;6733;51.044;3.746;2022-07-23T06:54:51;11.67;;;10.33;;
13327;SDS011;6733;51.044;3.746;2022-07-23T06:57:18;10.87;;;9.77;;
13327;SDS011;6733;51.044;3.746;2022-07-23T06:59:44;11.10;;;9.13;;
13327;SDS011;6733;51.044;3.746;2022-07-23T07:02:10;12.57;;;9.90;;
13327;SDS011;6733;51.044;3.746;2022-07-23T07:04:36;11.80;;;9.73;;
13327;SDS011;6733;51.044;3.746;2022-07-23T07:07:02;12.03;;;9.73;;
13327;SDS011;6733;51.044;3.746;2022-07-23T07:09:28;10.90;;;8.80;;
13327;SDS011;6733;51.044;3.746;2022-07-23T07:11:54;9.40;;;7.93;;
13327;SDS011;6733;51.044;3.746;2022-07-23T07:14:20;11.23;;;8.63;;
13327;SDS011;6733;51.044;3.746;2022-07-23T07:16:46;9.90;;;8.50;;
13327;SDS011;6733;51.044;3.746;2022-07-23T07:19:15;9.30;;;8.00;;
13327;SDS011;6733;51.044;3.746;2022-07-23T07:21:41;10.97;;;8.90;;
13327;SDS011;6733;51.044;3.746;2022-07-23T07:24:07;8.50;;;7.70;;
13327;SDS011;6733;51.044;3.746;2022-07-23T07:26:33;12.83;;;9.00;;
13327;SDS011;6733;51.044;3.746;2022-07-23T07:28:59;10.80;;;8.60;;
13327;SDS011;6733;51.044;3.746;2022-07-23T07:31:25;10.77;;;8.87;;
13327;SDS011;6733;51.044;3.746;2022-07-23T07:33:51;8.90;;;7.13;;
13327;SDS011;6733;51.044;3.746;2022-07-23T07:36:17;9.23;;;7.93;;
13327;SDS011;6733;51.044;3.746;2022-07-23T07:38:43;8.57;;;7.70;;
13327;SDS011;6733;51.044;3.746;2022-07-23T07:41:09;8.63;;;7.37;;
13327;SDS011;6733;51.044;3.746;2022-07-23T07:43:36;9.80;;;7.70;;
13327;SDS011;6733;51.044;3.746;2022-07-23T07:46:02;9.47;;;8.23;;
13327;SDS011;6733;51.044;3.746;2022-07-23T07:48:29;8.73;;;7.43;;
13327;SDS011;6733;51.044;3.746;2022-07-23T07:50:55;10.70;;;7.20;;
13327;SDS011;6733;51.044;3.746;2022-07-23T07:53:21;8.47;;;7.20;;
13327;SDS011;6733;51.044;3.746;2022-07-23T07:55:48;7.70;;;6.97;;
13327;SDS011;6733;51.044;3.746;2022-07-23T07:58:13;9.70;;;8.30;;
13327;SDS011;6733;51.044;3.746;2022-07-23T08:00:39;8.83;;;7.93;;
13327;SDS011;6733;51.044;3.746;2022-07-23T08:03:05;9.70;;;7.83;;
13327;SDS011;6733;51.044;3.746;2022-07-23T08:05:31;9.33;;;8.37;;
13327;SDS011;6733;51.044;3.746;2022-07-23T08:07:58;11.67;;;8.17;;
13327;SDS011;6733;51.044;3.746;2022-07-23T08:10:25;9.57;;;8.57;;
13327;SDS011;6733;51.044;3.746;2022-07-23T08:12:53;10.17;;;8.23;;
13327;SDS011;6733;51.044;3.746;2022-07-23T08:15:22;12.53;;;7.77;;
13327;SDS011;6733;51.044;3.746;2022-07-23T08:17:49;9.63;;;7.90;;
13327;SDS011;6733;51.044;3.746;2022-07-23T08:20:16;10.03;;;7.67;;
13327;SDS011;6733;51.044;3.746;2022-07-23T08:25:13;9.13;;;8.23;;
13327;SDS011;6733;51.044;3.746;2022-07-23T08:27:40;7.87;;;7.07;;
13327;SDS011;6733;51.044;3.746;2022-07-23T08:30:06;13.43;;;8.13;;
13327;SDS011;6733;51.044;3.746;2022-07-23T08:32:33;8.00;;;7.20;;
13327;SDS011;6733;51.044;3.746;2022-07-23T08:35:12;9.33;;;7.00;;
13327;SDS011;6733;51.044;3.746;2022-07-23T08:37:38;9.03;;;6.30;;
13327;SDS011;6733;51.044;3.746;2022-07-23T08:40:04;10.20;;;6.90;;
13327;SDS011;6733;51.044;3.746;2022-07-23T08:42:31;7.87;;;6.57;;
13327;SDS011;6733;51.044;3.746;2022-07-23T08:45:00;7.80;;;7.00;;
13327;SDS011;6733;51.044;3.746;2022-07-23T08:47:29;7.93;;;6.10;;
13327;SDS011;6733;51.044;3.746;2022-07-23T08:49:56;7.83;;;6.47;;
13327;SDS011;6733;51.044;3.746;2022-07-23T08:52:24;7.27;;;6.40;;
13327;SDS011;6733;51.044;3.746;2022-07-23T08:54:51;7.50;;;5.93;;
13327;SDS011;6733;51.044;3.746;2022-07-23T08:57:18;7.40;;;6.17;;
13327;SDS011;6733;51.044;3.746;2022-07-23T08:59:44;7.87;;;6.37;;
13327;SDS011;6733;51.044;3.746;2022-07-23T09:02:11;7.27;;;6.20;;
13327;SDS011;6733;51.044;3.746;2022-07-23T09:04:37;8.03;;;6.47;;
13327;SDS011;6733;51.044;3.746;2022-07-23T09:07:04;10.70;;;9.10;;
13327;SDS011;6733;51.044;3.746;2022-07-23T09:09:30;8.60;;;6.40;;
13327;SDS011;6733;51.044;3.746;2022-07-23T09:12:09;10.93;;;6.93;;
13327;SDS011;6733;51.044;3.746;2022-07-23T09:14:45;7.57;;;5.90;;
13327;SDS011;6733;51.044;3.746;2022-07-23T09:17:13;9.10;;;6.27;;
13327;SDS011;6733;51.044;3.746;2022-07-23T09:19:41;6.67;;;6.03;;
13327;SDS011;6733;51.044;3.746;2022-07-23T09:22:25;7.03;;;6.13;;
13327;SDS011;6733;51.044;3.746;2022-07-23T09:25:02;7.43;;;5.63;;
13327;SDS011;6733;51.044;3.746;2022-07-23T09:27:45;7.17;;;6.47;;
13327;SDS011;6733;51.044;3.746;2022-07-23T09:30:23;6.83;;;5.73;;
13327;SDS011;6733;51.044;3.746;2022-07-23T09:35:46;6.00;;;5.40;;
13327;SDS011;6733;51.044;3.746;2022-07-23T09:38:14;6.63;;;6.03;;
13327;SDS011;6733;51.044;3.746;2022-07-23T09:40:41;6.80;;;6.10;;
13327;SDS011;6733;51.044;3.746;2022-07-23T09:43:08;6.50;;;5.57;;
13327;SDS011;6733;51.044;3.746;2022-07-23T09:45:34;5.83;;;5.27;;
13327;SDS011;6733;51.044;3.746;2022-07-23T09:48:10;6.33;;;5.73;;
13327;SDS011;6733;51.044;3.746;2022-07-23T09:50:38;6.10;;;5.50;;
13327;SDS011;6733;51.044;3.746;2022-07-23T09:53:04;8.47;;;4.93;;
13327;SDS011;6733;51.044;3.746;2022-07-23T09:55:31;5.70;;;5.20;;
13327;SDS011;6733;51.044;3.746;2022-07-23T09:58:05;6.80;;;5.03;;
13327;SDS011;6733;51.044;3.746;2022-07-23T10:00:38;5.17;;;4.60;;
13327;SDS011;6733;51.044;3.746;2022-07-23T10:03:05;6.03;;;4.97;;
13327;SDS011;6733;51.044;3.746;2022-07-23T10:05:32;7.27;;;5.87;;
13327;SDS011;6733;51.044;3.746;2022-07-23T10:08:01;5.13;;;4.50;;
13327;SDS011;6733;51.044;3.746;2022-07-23T10:10:27;7.87;;;4.30;;
13327;SDS011;6733;51.044;3.746;2022-07-23T10:12:55;7.37;;;4.43;;
13327;SDS011;6733;51.044;3.746;2022-07-23T10:15:27;4.90;;;4.40;;
13327;SDS011;6733;51.044;3.746;2022-07-23T10:17:53;8.10;;;4.80;;
13327;SDS011;6733;51.044;3.746;2022-07-23T10:20:20;5.07;;;4.53;;
13327;SDS011;6733;51.044;3.746;2022-07-23T10:22:48;3.97;;;3.53;;
13327;SDS011;6733;51.044;3.746;2022-07-23T10:28:25;4.13;;;3.55;;
13327;SDS011;6733;51.044;3.746;2022-07-23T10:31:02;4.78;;;4.28;;
13327;SDS011;6733;51.044;3.746;2022-07-23T10:40:08;4.05;;;3.63;;
13327;SDS011;6733;51.044;3.746;2022-07-23T10:42:45;4.45;;;3.80;;
13327;SDS011;6733;51.044;3.746;2022-07-23T10:48:18;3.50;;;3.20;;
13327;SDS011;6733;51.044;3.746;2022-07-23T10:59:20;4.00;;;3.60;;
13327;SDS011;6733;51.044;3.746;2022-07-23T11:01:46;3.55;;;3.25;;
13327;SDS011;6733;51.044;3.746;2022-07-23T11:04:12;3.90;;;3.50;;
13327;SDS011;6733;51.044;3.746;2022-07-23T11:14:59;6.32;;;4.05;;
13327;SDS011;6733;51.044;3.746;2022-07-23T11:17:35;4.82;;;3.75;;
13327;SDS011;6733;51.044;3.746;2022-07-23T11:22:35;5.20;;;3.57;;
13327;SDS011;6733;51.044;3.746;2022-07-23T11:25:05;3.60;;;3.23;;
13327;SDS011;6733;51.044;3.746;2022-07-23T11:30:05;4.03;;;3.40;;
13327;SDS011;6733;51.044;3.746;2022-07-23T11:32:34;4.35;;;3.20;;
13327;SDS011;6733;51.044;3.746;2022-07-23T11:35:17;5.30;;;3.30;;
13327;SDS011;6733;51.044;3.746;2022-07-23T11:37:46;4.10;;;3.65;;
13327;SDS011;6733;51.044;3.746;2022-07-23T11:40:13;4.53;;;3.10;;
13327;SDS011;6733;51.044;3.746;2022-07-23T11:42:58;4.97;;;3.60;;
13327;SDS011;6733;51.044;3.746;2022-07-23T11:45:29;3.83;;;3.45;;
13327;SDS011;6733;51.044;3.746;2022-07-23T11:48:00;3.35;;;3.05;;
13327;SDS011;6733;51.044;3.746;2022-07-23T11:50:26;3.97;;;2.90;;
13327;SDS011;6733;51.044;3.746;2022-07-23T11:52:53;3.53;;;2.95;;
13327;SDS011;6733;51.044;3.746;2022-07-23T11:55:20;3.55;;;3.05;;
13327;SDS011;6733;51.044;3.746;2022-07-23T11:57:46;4.65;;;2.97;;
13327;SDS011;6733;51.044;3.746;2022-07-23T12:00:13;3.35;;;3.05;;
13327;SDS011;6733;51.044;3.746;2022-07-23T12:02:45;4.68;;;3.08;;
13327;SDS011;6733;51.044;3.746;2022-07-23T12:05:13;4.00;;;3.60;;
13327;SDS011;6733;51.044;3.746;2022-07-23T12:07:44;4.22;;;2.83;;
13327;SDS011;6733;51.044;3.746;2022-07-23T12:10:17;3.85;;;2.97;;
13327;SDS011;6733;51.044;3.746;2022-07-23T12:12:54;3.40;;;3.10;;
13327;SDS011;6733;51.044;3.746;2022-07-23T12:15:23;3.95;;;3.47;;
13327;SDS011;6733;51.044;3.746;2022-07-23T12:17:51;3.42;;;3.13;;
13327;SDS011;6733;51.044;3.746;2022-07-23T12:20:20;5.18;;;3.63;;
13327;SDS011;6733;51.044;3.746;2022-07-23T12:22:50;4.13;;;3.35;;
13327;SDS011;6733;51.044;3.746;2022-07-23T12:25:19;4.85;;;3.78;;
13327;SDS011;6733;51.044;3.746;2022-07-23T12:27:57;5.07;;;3.33;;
13327;SDS011;6733;51.044;3.746;2022-07-23T12:30:39;3.55;;;3.30;;
13327;SDS011;6733;51.044;3.746;2022-07-23T12:33:21;3.70;;;3.40;;
13327;SDS011;6733;51.044;3.746;2022-07-23T12:35:48;4.90;;;3.30;;
13327;SDS011;6733;51.044;3.746;2022-07-23T12:38:16;4.28;;;3.88;;
13327;SDS011;6733;51.044;3.746;2022-07-23T12:40:44;4.70;;;3.38;;
13327;SDS011;6733;51.044;3.746;2022-07-23T12:43:12;4.80;;;3.30;;
13327;SDS011;6733;51.044;3.746;2022-07-23T12:53:20;4.38;;;3.97;;
13327;SDS011;6733;51.044;3.746;2022-07-23T12:56:01;3.65;;;3.35;;
13327;SDS011;6733;51.044;3.746;2022-07-23T12:58:47;4.00;;;3.60;;
13327;SDS011;6733;51.044;3.746;2022-07-23T13:04:03;4.30;;;3.15;;
13327;SDS011;6733;51.044;3.746;2022-07-23T13:06:31;3.50;;;3.15;;
13327;SDS011;6733;51.044;3.746;2022-07-23T13:08:58;4.40;;;3.50;;
13327;SDS011;6733;51.044;3.746;2022-07-23T13:11:24;4.68;;;3.42;;
13327;SDS011;6733;51.044;3.746;2022-07-23T13:13:51;4.07;;;3.67;;
13327;SDS011;6733;51.044;3.746;2022-07-23T13:16:17;4.00;;;3.63;;
13327;SDS011;6733;51.044;3.746;2022-07-23T13:18:43;4.30;;;3.90;;
13327;SDS011;6733;51.044;3.746;2022-07-23T13:21:10;4.53;;;3.63;;
13327;SDS011;6733;51.044;3.746;2022-07-23T13:23:36;8.23;;;4.80;;
13327;SDS011;6733;51.044;3.746;2022-07-23T13:26:02;5.93;;;4.18;;
13327;SDS011;6733;51.044;3.746;2022-07-23T13:28:29;5.80;;;4.72;;
13327;SDS011;6733;51.044;3.746;2022-07-23T13:30:55;5.75;;;5.15;;
13327;SDS011;6733;51.044;3.746;2022-07-23T13:33:23;6.70;;;4.82;;
13327;SDS011;6733;51.044;3.746;2022-07-23T13:35:51;4.80;;;3.72;;
13327;SDS011;6733;51.044;3.746;2022-07-23T13:38:18;4.15;;;3.60;;
13327;SDS011;6733;51.044;3.746;2022-07-23T13:40:46;4.75;;;4.00;;
13327;SDS011;6733;51.044;3.746;2022-07-23T13:43:15;4.25;;;3.78;;
13327;SDS011;6733;51.044;3.746;2022-07-23T13:45:43;3.40;;;3.10;;
13327;SDS011;6733;51.044;3.746;2022-07-23T13:48:11;7.65;;;4.00;;
13327;SDS011;6733;51.044;3.746;2022-07-23T13:50:38;4.40;;;4.00;;
13327;SDS011;6733;51.044;3.746;2022-07-23T13:53:08;3.88;;;3.55;;
13327;SDS011;6733;51.044;3.746;2022-07-23T13:55:39;7.28;;;4.30;;
13327;SDS011;6733;51.044;3.746;2022-07-23T13:58:06;4.55;;;3.78;;
13327;SDS011;6733;51.044;3.746;2022-07-23T14:00:34;4.45;;;3.88;;
13327;SDS011;6733;51.044;3.746;2022-07-23T14:03:01;5.70;;;4.05;;
13327;SDS011;6733;51.044;3.746;2022-07-23T14:05:28;7.35;;;3.97;;
13327;SDS011;6733;51.044;3.746;2022-07-23T14:07:54;3.45;;;3.15;;
13327;SDS011;6733;51.044;3.746;2022-07-23T14:10:21;4.20;;;3.83;;
13327;SDS011;6733;51.044;3.746;2022-07-23T14:12:48;5.32;;;3.90;;
13327;SDS011;6733;51.044;3.746;2022-07-23T14:15:16;5.50;;;4.32;;
13327;SDS011;6733;51.044;3.746;2022-07-23T14:17:43;4.35;;;3.65;;
13327;SDS011;6733;51.044;3.746;2022-07-23T14:20:11;5.30;;;3.78;;
13327;SDS011;6733;51.044;3.746;2022-07-23T14:22:39;7.18;;;4.43;;
13327;SDS011;6733;51.044;3.746;2022-07-23T14:25:06;4.65;;;4.10;;
13327;SDS011;6733;51.044;3.746;2022-07-23T14:27:33;4.40;;;3.90;;
13327;SDS011;6733;51.044;3.746;2022-07-23T14:30:00;4.18;;;3.70;;
13327;SDS011;6733;51.044;3.746;2022-07-23T14:32:25;6.13;;;4.03;;
13327;SDS011;6733;51.044;3.746;2022-07-23T14:34:52;4.30;;;3.90;;
13327;SDS011;6733;51.044;3.746;2022-07-23T14:37:18;5.18;;;3.65;;
13327;SDS011;6733;51.044;3.746;2022-07-23T14:39:44;5.32;;;4.35;;
13327;SDS011;6733;51.044;3.746;2022-07-23T14:42:11;5.38;;;3.97;;
13327;SDS011;6733;51.044;3.746;2022-07-23T14:44:38;4.68;;;4.13;;
13327;SDS011;6733;51.044;3.746;2022-07-23T14:47:04;5.90;;;4.47;;
13327;SDS011;6733;51.044;3.746;2022-07-23T14:49:31;4.93;;;4.25;;
13327;SDS011;6733;51.044;3.746;2022-07-23T14:51:58;5.40;;;4.50;;
13327;SDS011;6733;51.044;3.746;2022-07-23T14:54:24;4.60;;;4.00;;
13327;SDS011;6733;51.044;3.746;2022-07-23T14:56:53;4.60;;;4.10;;
13327;SDS011;6733;51.044;3.746;2022-07-23T14:59:20;7.18;;;4.15;;
13327;SDS011;6733;51.044;3.746;2022-07-23T15:01:46;9.73;;;4.82;;
13327;SDS011;6733;51.044;3.746;2022-07-23T15:04:12;4.78;;;3.90;;
13327;SDS011;6733;51.044;3.746;2022-07-23T15:06:39;4.95;;;4.35;;
13327;SDS011;6733;51.044;3.746;2022-07-23T15:09:05;4.32;;;3.92;;
13327;SDS011;6733;51.044;3.746;2022-07-23T15:11:31;4.60;;;4.20;;
13327;SDS011;6733;51.044;3.746;2022-07-23T15:14:00;4.80;;;4.00;;
13327;SDS011;6733;51.044;3.746;2022-07-23T15:16:27;5.95;;;4.65;;
13327;SDS011;6733;51.044;3.746;2022-07-23T15:18:53;6.43;;;4.90;;
13327;SDS011;6733;51.044;3.746;2022-07-23T15:21:20;5.13;;;4.60;;
13327;SDS011;6733;51.044;3.746;2022-07-23T15:23:46;5.43;;;5.00;;
13327;SDS011;6733;51.044;3.746;2022-07-23T15:26:13;5.63;;;4.97;;
13327;SDS011;6733;51.044;3.746;2022-07-23T15:28:41;5.75;;;5.25;;
13327;SDS011;6733;51.044;3.746;2022-07-23T15:31:07;5.65;;;5.05;;
13327;SDS011;6733;51.044;3.746;2022-07-23T15:33:33;5.55;;;4.82;;
13327;SDS011;6733;51.044;3.746;2022-07-23T15:36:01;5.85;;;4.95;;
13327;SDS011;6733;51.044;3.746;2022-07-23T15:38:27;5.80;;;5.28;;
13327;SDS011;6733;51.044;3.746;2022-07-23T15:40:56;5.68;;;4.90;;